createdAt,value
2019-03-08T00:03:47.044Z,2.27
2019-03-08T00:07:50.408Z,4.97
2019-03-08T00:11:54.362Z,2.53
2019-03-08T00:15:58.231Z,2.10
2019-03-08T00:20:01.584Z,2.07
2019-03-08T00:24:05.265Z,2.13
2019-03-08T00:28:08.677Z,2.60
2019-03-08T00:32:12.088Z,2.43
2019-03-08T00:36:15.966Z,2.40
2019-03-08T00:40:19.395Z,2.50
2019-03-08T00:44:23.209Z,2.37
2019-03-08T00:48:26.671Z,2.70
2019-03-08T00:52:29.991Z,3.83
2019-03-08T00:56:33.415Z,3.90
2019-03-08T01:00:37.600Z,2.10
2019-03-08T01:08:42.323Z,3.70
2019-03-08T01:12:45.636Z,2.90
2019-03-08T01:16:49.089Z,3.30
2019-03-08T01:20:52.898Z,4.07
2019-03-08T01:24:56.230Z,4.27
2019-03-08T01:28:59.618Z,3.00
2019-03-08T01:33:03.016Z,5.23
2019-03-08T01:37:06.327Z,4.00
2019-03-08T01:41:10.136Z,3.00
2019-03-08T01:45:13.854Z,3.97
2019-03-08T01:49:17.350Z,3.77
2019-03-08T01:53:21.228Z,2.83
2019-03-08T01:57:24.607Z,3.73
2019-03-08T02:01:28.050Z,3.10
2019-03-08T02:05:31.470Z,3.20
2019-03-08T02:09:34.776Z,3.83
2019-03-08T02:13:38.115Z,4.20
2019-03-08T02:17:42.126Z,3.53
2019-03-08T02:21:46.251Z,4.33
2019-03-08T02:25:50.213Z,6.17
2019-03-08T02:29:53.545Z,3.50
2019-03-08T02:33:56.933Z,4.57
2019-03-08T02:38:00.248Z,3.60
2019-03-08T02:42:03.757Z,5.70
2019-03-08T02:46:07.571Z,5.40
2019-03-08T02:50:11.481Z,7.07
2019-03-08T02:54:15.239Z,6.10
2019-03-08T02:58:19.266Z,5.13
2019-03-08T03:02:22.683Z,6.97
2019-03-08T03:06:26.521Z,5.13
2019-03-08T03:10:30.310Z,6.47
2019-03-08T03:14:33.826Z,6.37
2019-03-08T03:18:37.247Z,5.73
2019-03-08T03:22:41.062Z,4.97
2019-03-08T03:26:44.506Z,5.53
2019-03-08T03:30:47.845Z,3.87
2019-03-08T03:34:51.305Z,4.87
2019-03-08T03:38:54.644Z,4.33
2019-03-08T03:42:58.445Z,5.90
2019-03-08T03:47:02.609Z,8.60
2019-03-08T03:51:06.408Z,6.57
2019-03-08T03:55:10.725Z,9.37
2019-03-08T03:59:14.254Z,10.37
2019-03-08T04:03:17.664Z,5.83
2019-03-08T04:07:20.975Z,8.30
2019-03-08T04:11:24.574Z,8.50
2019-03-08T04:15:27.953Z,7.20
2019-03-08T04:19:31.308Z,8.57
2019-03-08T04:23:35.164Z,5.73
2019-03-08T04:27:38.930Z,5.33
2019-03-08T04:31:42.284Z,5.37
2019-03-08T04:35:45.698Z,5.50
2019-03-08T04:39:49.055Z,7.80
2019-03-08T04:43:53.140Z,5.93
2019-03-08T04:47:57.315Z,8.50
2019-03-08T04:52:00.656Z,9.17
2019-03-08T04:56:03.987Z,6.23
2019-03-08T05:00:07.764Z,8.17
2019-03-08T05:04:11.416Z,7.60
2019-03-08T05:08:15.379Z,7.20
2019-03-08T05:12:18.723Z,9.03
2019-03-08T05:16:22.042Z,8.00
2019-03-08T05:20:25.652Z,8.23
2019-03-08T05:24:29.356Z,7.50
2019-03-08T05:28:32.683Z,6.50
2019-03-08T05:32:36.362Z,7.33
2019-03-08T05:36:39.700Z,5.63
2019-03-08T05:40:43.151Z,5.40
2019-03-08T05:44:47.029Z,4.90
2019-03-08T05:48:50.368Z,5.43
2019-03-08T05:52:53.718Z,5.50
2019-03-08T05:56:57.479Z,5.40
2019-03-08T06:01:00.872Z,6.53
2019-03-08T06:05:04.965Z,6.00
2019-03-08T06:09:09.053Z,5.93
2019-03-08T06:13:12.388Z,6.23
2019-03-08T06:17:15.963Z,5.93
2019-03-08T06:21:19.335Z,6.53
2019-03-08T06:25:22.762Z,6.77
2019-03-08T06:29:26.071Z,5.97
2019-03-08T06:33:29.423Z,6.33
2019-03-08T06:37:33.592Z,4.77
2019-03-08T06:41:37.479Z,5.30
2019-03-08T06:45:40.968Z,5.40
2019-03-08T06:49:44.330Z,4.67
2019-03-08T06:53:48.086Z,5.17
2019-03-08T06:57:57.467Z,4.97
2019-03-08T07:02:00.895Z,5.60
2019-03-08T07:06:04.266Z,4.97
2019-03-08T07:10:07.835Z,3.60
2019-03-08T07:14:11.735Z,3.60
2019-03-08T07:18:15.023Z,4.83
2019-03-08T07:22:36.778Z,6.73
2019-03-08T07:26:58.237Z,6.60
2019-03-08T07:31:23.803Z,4.37
2019-03-08T07:35:52.499Z,6.10
2019-03-08T07:40:15.869Z,5.27
2019-03-08T07:44:35.046Z,4.40
2019-03-08T07:48:56.310Z,6.03
2019-03-08T07:53:18.527Z,4.80
2019-03-08T07:57:28.286Z,5.60
2019-03-08T08:01:45.522Z,5.07
2019-03-08T08:06:09.167Z,5.87
2019-03-08T08:10:24.915Z,4.70
2019-03-08T08:14:50.475Z,4.43
2019-03-08T08:19:13.586Z,5.33
2019-03-08T08:23:34.337Z,6.80
2019-03-08T08:27:51.426Z,5.03
2019-03-08T08:32:33.132Z,5.90
2019-03-08T08:36:58.502Z,8.23
2019-03-08T08:41:27.010Z,5.10
2019-03-08T08:45:55.710Z,4.87
2019-03-08T08:50:06.590Z,4.80
2019-03-08T08:54:28.977Z,4.63
2019-03-08T08:58:45.803Z,4.30
2019-03-08T09:03:07.266Z,5.10
2019-03-08T09:07:19.537Z,5.57
2019-03-08T09:11:44.079Z,4.70
2019-03-08T09:15:56.770Z,7.30
2019-03-08T09:20:18.178Z,8.10
2019-03-08T09:24:43.699Z,6.23
2019-03-08T09:29:09.212Z,6.67
2019-03-08T09:33:22.059Z,5.37
2019-03-08T09:37:40.226Z,5.90
2019-03-08T09:42:00.777Z,5.20
2019-03-08T09:46:29.534Z,4.13
2019-03-08T09:50:40.198Z,3.70
2019-03-08T09:54:55.119Z,3.73
2019-03-08T09:59:27.564Z,4.33
2019-03-08T10:03:46.747Z,3.43
2019-03-08T10:07:57.959Z,4.63
2019-03-08T10:12:26.591Z,5.33
2019-03-08T10:16:34.871Z,4.43
2019-03-08T10:20:56.142Z,4.47
2019-03-08T10:25:17.883Z,4.10
2019-03-08T10:29:44.647Z,7.10
2019-03-08T10:34:16.411Z,5.80
2019-03-08T10:38:25.387Z,4.63
2019-03-08T10:42:34.627Z,4.90
2019-03-08T10:47:00.279Z,4.80
2019-03-08T10:51:08.883Z,4.43
2019-03-08T10:55:43.914Z,5.70
2019-03-08T11:00:15.474Z,4.80
2019-03-08T11:04:46.730Z,5.40
2019-03-08T11:09:09.378Z,4.90
2019-03-08T11:13:23.815Z,4.27
2019-03-08T11:17:51.013Z,3.90
2019-03-08T11:22:15.592Z,3.97
2019-03-08T11:26:33.310Z,3.40
2019-03-08T11:31:04.690Z,4.07
2019-03-08T11:35:24.314Z,6.33
2019-03-08T11:39:52.426Z,5.50
2019-03-08T11:44:01.770Z,6.23
2019-03-08T11:48:22.972Z,4.93
2019-03-08T11:52:48.542Z,5.07
2019-03-08T11:57:10.191Z,3.93
2019-03-08T12:01:34.210Z,3.40
2019-03-08T12:05:55.634Z,2.87
2019-03-08T12:10:07.066Z,4.63
2019-03-08T12:14:29.627Z,3.17
2019-03-08T12:18:40.919Z,3.77
2019-03-08T12:23:02.075Z,4.40
2019-03-08T12:27:21.411Z,3.03
2019-03-08T12:32:02.783Z,3.83
2019-03-08T12:36:16.050Z,3.73
2019-03-08T12:40:45.358Z,4.60
2019-03-08T12:45:07.826Z,3.10
2019-03-08T12:49:36.947Z,3.70
2019-03-08T12:53:58.390Z,3.47
2019-03-08T12:58:23.354Z,4.30
2019-03-08T13:02:44.566Z,5.43
2019-03-08T13:06:55.154Z,4.40
2019-03-08T13:10:58.906Z,3.60
2019-03-08T13:15:02.197Z,3.57
2019-03-08T13:19:05.952Z,3.00
2019-03-08T13:23:09.238Z,4.47
2019-03-08T13:27:12.606Z,4.80
2019-03-08T13:31:16.356Z,2.40
2019-03-08T13:35:19.946Z,2.53
2019-03-08T13:39:23.238Z,1.80
2019-03-08T13:43:26.583Z,1.60
2019-03-08T13:47:30.587Z,2.07
2019-03-08T13:51:34.335Z,3.63
2019-03-08T13:55:37.614Z,3.00
2019-03-08T13:59:41.606Z,2.90
2019-03-08T14:03:45.728Z,3.20
2019-03-08T14:07:49.022Z,3.47
2019-03-08T14:11:52.294Z,2.00
2019-03-08T14:15:55.587Z,3.90
2019-03-08T14:19:59.182Z,3.20
2019-03-08T14:24:02.644Z,2.97
2019-03-08T14:28:06.454Z,2.90
2019-03-08T14:32:14.052Z,3.20
2019-03-08T14:36:17.395Z,3.67
2019-03-08T14:40:30.755Z,4.97
2019-03-08T14:44:56.718Z,2.83
2019-03-08T14:49:00.010Z,3.40
2019-03-08T14:53:04.015Z,3.37
2019-03-08T14:57:09.284Z,3.57
2019-03-08T15:01:13.018Z,2.80
2019-03-08T15:05:19.238Z,3.17
2019-03-08T15:09:21.646Z,5.50
2019-03-08T15:13:25.822Z,6.30
2019-03-08T15:17:29.314Z,5.93
2019-03-08T15:21:33.244Z,5.53
2019-03-08T15:25:37.694Z,4.23
2019-03-08T15:29:41.415Z,4.63
2019-03-08T15:33:44.698Z,5.00
2019-03-08T15:37:48.539Z,5.23
2019-03-08T15:41:52.339Z,4.33
2019-03-08T15:45:56.058Z,5.10
2019-03-08T15:49:59.794Z,3.60
2019-03-08T15:54:03.154Z,3.07
2019-03-08T15:58:07.086Z,3.50
2019-03-08T16:02:11.315Z,3.23
2019-03-08T16:06:15.124Z,2.80
2019-03-08T16:10:19.344Z,3.47
2019-03-08T16:14:23.314Z,4.00
2019-03-08T16:18:26.663Z,2.63
2019-03-08T16:22:30.758Z,2.37
2019-03-08T16:26:34.070Z,2.70
2019-03-08T16:30:39.022Z,2.90
2019-03-08T16:34:42.810Z,3.03
2019-03-08T16:38:52.678Z,2.30
2019-03-08T16:43:18.650Z,3.07
2019-03-08T16:47:44.206Z,4.17
2019-03-08T16:51:56.770Z,5.30
2019-03-08T16:56:15.470Z,9.17
2019-03-08T17:00:41.198Z,6.07
2019-03-08T17:04:55.026Z,3.83
2019-03-08T17:09:06.546Z,3.90
2019-03-08T17:13:32.170Z,2.80
2019-03-08T17:17:53.502Z,3.27
2019-03-08T17:22:03.650Z,2.20
2019-03-08T17:26:13.831Z,2.13
2019-03-08T17:30:30.651Z,2.80
2019-03-08T17:34:52.180Z,2.73
2019-03-08T17:39:12.414Z,3.23
2019-03-08T17:43:47.133Z,3.80
2019-03-08T17:48:21.888Z,3.53
2019-03-08T17:52:47.419Z,3.73
2019-03-08T17:57:08.611Z,3.73
2019-03-08T18:01:39.451Z,3.97
2019-03-08T18:06:07.863Z,4.00
2019-03-08T18:10:29.018Z,3.57
2019-03-08T18:14:41.358Z,5.93
2019-03-08T18:19:03.154Z,3.27
2019-03-08T18:23:13.771Z,3.90
2019-03-08T18:27:51.725Z,3.20
2019-03-08T18:32:00.662Z,3.60
2019-03-08T18:36:32.382Z,3.17
2019-03-08T18:40:53.585Z,3.43
2019-03-08T18:45:07.298Z,3.13
2019-03-08T18:49:19.443Z,3.10
2019-03-08T18:53:33.854Z,4.00
2019-03-08T18:57:43.646Z,3.17
2019-03-08T19:02:12.767Z,3.13
2019-03-08T19:06:21.370Z,3.33
2019-03-08T19:10:43.855Z,3.10
2019-03-08T19:14:55.900Z,3.27
2019-03-08T19:19:19.274Z,2.70
2019-03-08T19:23:36.586Z,3.60
2019-03-08T19:27:53.879Z,3.00
2019-03-08T19:32:04.822Z,3.47
2019-03-08T19:36:19.502Z,3.47
2019-03-08T19:40:31.949Z,2.80
2019-03-08T19:44:53.315Z,3.03
2019-03-08T19:49:14.971Z,3.50
2019-03-08T19:53:48.169Z,4.10
2019-03-08T19:58:17.137Z,4.80
2019-03-08T20:02:42.100Z,8.17
2019-03-08T20:06:58.240Z,3.67
2019-03-08T20:11:20.724Z,2.60
2019-03-08T20:15:32.072Z,3.83
2019-03-08T20:19:48.600Z,3.83
2019-03-08T20:24:11.427Z,2.50
2019-03-08T20:28:33.187Z,3.53
2019-03-08T20:32:44.555Z,3.63
2019-03-08T20:37:05.971Z,4.03
2019-03-08T20:41:27.722Z,3.70
2019-03-08T20:45:50.203Z,3.43
2019-03-08T20:49:53.491Z,4.13
2019-03-08T20:53:56.868Z,3.47
2019-03-08T20:58:00.219Z,2.93
2019-03-08T21:02:04.118Z,4.57
2019-03-08T21:06:07.498Z,3.43
2019-03-08T21:10:10.806Z,3.67
2019-03-08T21:14:14.102Z,2.80
2019-03-08T21:18:17.439Z,2.80
2019-03-08T21:22:21.258Z,4.83
2019-03-08T21:26:24.563Z,4.80
2019-03-08T21:30:28.378Z,4.83
2019-03-08T21:34:31.687Z,4.27
2019-03-08T21:38:35.022Z,4.00
2019-03-08T21:42:38.308Z,4.90
2019-03-08T21:46:42.123Z,4.57
2019-03-08T21:50:45.415Z,4.70
2019-03-08T21:54:49.132Z,4.57
2019-03-08T21:58:52.860Z,3.70
2019-03-08T22:02:56.142Z,3.57
2019-03-08T22:06:59.858Z,3.63
2019-03-08T22:11:31.976Z,2.83
2019-03-08T22:15:35.838Z,4.53
2019-03-08T22:19:39.122Z,3.63
2019-03-08T22:23:42.454Z,3.70
2019-03-08T22:27:46.178Z,5.67
2019-03-08T22:31:50.207Z,6.40
2019-03-08T22:35:54.239Z,6.63
2019-03-08T22:39:57.514Z,5.50
2019-03-08T22:44:01.034Z,5.40
2019-03-08T22:48:04.611Z,5.10
2019-03-08T22:52:07.930Z,4.50
2019-03-08T22:56:11.303Z,4.17
2019-03-08T23:00:29.849Z,3.43
2019-03-08T23:04:33.710Z,3.30
2019-03-08T23:08:37.539Z,1.90
2019-03-08T23:12:40.840Z,2.83
2019-03-08T23:16:44.641Z,2.33
2019-03-08T23:20:48.460Z,2.77
2019-03-08T23:24:52.597Z,2.63
2019-03-08T23:29:04.309Z,2.70
2019-03-08T23:33:07.682Z,1.87
2019-03-08T23:37:11.406Z,2.60
2019-03-08T23:41:14.906Z,2.83
2019-03-08T23:45:18.210Z,2.80
2019-03-08T23:49:21.522Z,2.40
2019-03-08T23:53:24.798Z,3.33
2019-03-08T23:57:28.136Z,2.80
